sensor_id;sensor_type;location;lat;lon;timestamp;pressure;altitude;pressure_sealevel;temperature;humidity
50672;BME280;46021;55.882;37.654;2023-04-04T00:02:20;99419.59;;;5.75;81.86
50672;BME280;46021;55.882;37.654;2023-04-04T00:04:48;99415.25;;;5.77;81.46
50672;BME280;46021;55.882;37.654;2023-04-04T00:07:15;99414.41;;;5.77;81.45
50672;BME280;46021;55.882;37.654;2023-04-04T00:09:43;99416.94;;;5.78;81.73
50672;BME280;46021;55.882;37.654;2023-04-04T00:12:10;99401.53;;;5.71;81.76
50672;BME280;46021;55.882;37.654;2023-04-04T00:14:38;99413.47;;;5.79;82.06
50672;BME280;46021;55.882;37.654;2023-04-04T00:17:05;99414.31;;;5.80;81.85
50672;BME280;46021;55.882;37.654;2023-04-04T00:19:32;99414.34;;;5.78;81.70
50672;BME280;46021;55.882;37.654;2023-04-04T00:21:59;99420.41;;;5.79;81.76
50672;BME280;46021;55.882;37.654;2023-04-04T00:24:26;99410.06;;;5.79;82.35
50672;BME280;46021;55.882;37.654;2023-04-04T00:26:55;99416.06;;;5.79;81.65
50672;BME280;46021;55.882;37.654;2023-04-04T00:29:22;99414.34;;;5.78;81.65
50672;BME280;46021;55.882;37.654;2023-04-04T00:31:49;99415.25;;;5.77;81.96
50672;BME280;46021;55.882;37.654;2023-04-04T00:34:16;99427.34;;;5.75;82.14
50672;BME280;46021;55.882;37.654;2023-04-04T00:36:44;99433.44;;;5.71;82.37
50672;BME280;46021;55.882;37.654;2023-04-04T00:39:11;99425.66;;;5.73;81.74
50672;BME280;46021;55.882;37.654;2023-04-04T00:41:38;99426.56;;;5.70;82.01
50672;BME280;46021;55.882;37.654;2023-04-04T00:44:07;99424.00;;;5.69;82.11
50672;BME280;46021;55.882;37.654;2023-04-04T00:46:34;99420.53;;;5.71;82.50
50672;BME280;46021;55.882;37.654;2023-04-04T00:49:01;99418.69;;;5.76;82.16
50672;BME280;46021;55.882;37.654;2023-04-04T00:51:28;99417.78;;;5.80;82.10
50672;BME280;46021;55.882;37.654;2023-04-04T00:53:55;99411.75;;;5.78;82.23
50672;BME280;46021;55.882;37.654;2023-04-04T00:56:22;99409.25;;;5.75;81.84
50672;BME280;46021;55.882;37.654;2023-04-04T00:58:50;99412.66;;;5.77;82.56
50672;BME280;46021;55.882;37.654;2023-04-04T01:01:18;99410.88;;;5.79;82.15
50672;BME280;46021;55.882;37.654;2023-04-04T01:03:45;99402.28;;;5.80;81.73
50672;BME280;46021;55.882;37.654;2023-04-04T01:06:13;99411.69;;;5.84;82.01
50672;BME280;46021;55.882;37.654;2023-04-04T01:08:41;99409.97;;;5.83;81.78
50672;BME280;46021;55.882;37.654;2023-04-04T01:11:09;99409.09;;;5.84;81.29
50672;BME280;46021;55.882;37.654;2023-04-04T01:13:37;99411.69;;;5.84;82.04
50672;BME280;46021;55.882;37.654;2023-04-04T01:16:05;99415.97;;;5.85;81.58
50672;BME280;46021;55.882;37.654;2023-04-04T01:18:35;99409.09;;;5.83;81.09
50672;BME280;46021;55.882;37.654;2023-04-04T01:21:08;99409.97;;;5.82;80.82
50672;BME280;46021;55.882;37.654;2023-04-04T01:23:46;99400.53;;;5.79;81.55
50672;BME280;46021;55.882;37.654;2023-04-04T01:26:18;99398.91;;;5.74;81.36
50672;BME280;46021;55.882;37.654;2023-04-04T01:28:47;99399.88;;;5.66;81.67
50672;BME280;46021;55.882;37.654;2023-04-04T01:31:16;99400.03;;;5.59;81.90
50672;BME280;46021;55.882;37.654;2023-04-04T01:33:53;99409.69;;;5.47;82.18
50672;BME280;46021;55.882;37.654;2023-04-04T01:36:26;99394.28;;;5.40;82.28
50672;BME280;46021;55.882;37.654;2023-04-04T01:39:00;99402.06;;;5.38;81.71
50672;BME280;46021;55.882;37.654;2023-04-04T01:41:33;99408.13;;;5.36;81.66
50672;BME280;46021;55.882;37.654;2023-04-04T01:44:02;99395.25;;;5.33;82.09
50672;BME280;46021;55.882;37.654;2023-04-04T01:46:29;99403.09;;;5.28;82.20
50672;BME280;46021;55.882;37.654;2023-04-04T01:48:57;99400.50;;;5.28;81.81
50672;BME280;46021;55.882;37.654;2023-04-04T01:51:29;99381.63;;;5.21;82.54
50672;BME280;46021;55.882;37.654;2023-04-04T01:53:56;99393.56;;;5.32;82.86
50672;BME280;46021;55.882;37.654;2023-04-04T01:56:24;99400.50;;;5.28;82.01
50672;BME280;46021;55.882;37.654;2023-04-04T01:58:54;99404.00;;;5.25;81.71
50672;BME280;46021;55.882;37.654;2023-04-04T02:01:22;99400.53;;;5.26;81.73
50672;BME280;46021;55.882;37.654;2023-04-04T02:03:49;99391.03;;;5.27;82.83
50672;BME280;46021;55.882;37.654;2023-04-04T02:06:16;99396.25;;;5.24;82.77
50672;BME280;46021;55.882;37.654;2023-04-04T02:08:43;99399.66;;;5.26;81.96
50672;BME280;46021;55.882;37.654;2023-04-04T02:11:11;99398.84;;;5.24;82.38
50672;BME280;46021;55.882;37.654;2023-04-04T02:13:38;99404.88;;;5.23;82.76
50672;BME280;46021;55.882;37.654;2023-04-04T02:16:10;99403.13;;;5.25;81.83
50672;BME280;46021;55.882;37.654;2023-04-04T02:18:38;99404.00;;;5.25;82.05
50672;BME280;46021;55.882;37.654;2023-04-04T02:21:05;99403.91;;;5.30;81.94
50672;BME280;46021;55.882;37.654;2023-04-04T02:23:33;99401.28;;;5.33;81.73
50672;BME280;46021;55.882;37.654;2023-04-04T02:26:00;99405.56;;;5.36;82.26
50672;BME280;46021;55.882;37.654;2023-04-04T02:28:27;99402.94;;;5.37;82.09
50672;BME280;46021;55.882;37.654;2023-04-04T02:30:54;99403.78;;;5.38;81.86
50672;BME280;46021;55.882;37.654;2023-04-04T02:33:23;99401.22;;;5.36;82.21
50672;BME280;46021;55.882;37.654;2023-04-04T02:35:50;99397.78;;;5.37;82.04
50672;BME280;46021;55.882;37.654;2023-04-04T02:38:17;99402.06;;;5.38;81.94
50672;BME280;46021;55.882;37.654;2023-04-04T02:40:46;99404.63;;;5.38;82.60
50672;BME280;46021;55.882;37.654;2023-04-04T02:43:13;99396.06;;;5.35;81.83
50672;BME280;46021;55.882;37.654;2023-04-04T02:45:41;99401.28;;;5.33;82.61
50672;BME280;46021;55.882;37.654;2023-04-04T02:48:16;99405.59;;;5.33;82.18
50672;BME280;46021;55.882;37.654;2023-04-04T02:50:48;99402.16;;;5.32;81.81
50672;BME280;46021;55.882;37.654;2023-04-04T02:53:15;99405.59;;;5.31;82.06
50672;BME280;46021;55.882;37.654;2023-04-04T02:55:44;99404.72;;;5.34;81.55
50672;BME280;46021;55.882;37.654;2023-04-04T02:58:11;99404.66;;;5.37;82.46
50672;BME280;46021;55.882;37.654;2023-04-04T03:00:39;99390.88;;;5.36;82.05
50672;BME280;46021;55.882;37.654;2023-04-04T03:03:06;99411.47;;;5.42;82.27
50672;BME280;46021;55.882;37.654;2023-04-04T03:05:38;99404.56;;;5.44;82.51
50672;BME280;46021;55.882;37.654;2023-04-04T03:08:07;99395.09;;;5.43;81.82
50672;BME280;46021;55.882;37.654;2023-04-04T03:10:34;99398.50;;;5.47;81.58
50672;BME280;46021;55.882;37.654;2023-04-04T03:13:02;99397.66;;;5.46;82.10
50672;BME280;46021;55.882;37.654;2023-04-04T03:15:32;99392.50;;;5.43;81.57
50672;BME280;46021;55.882;37.654;2023-04-04T03:17:59;99402.81;;;5.46;81.71
50672;BME280;46021;55.882;37.654;2023-04-04T03:20:28;99395.88;;;5.49;82.27
50672;BME280;46021;55.882;37.654;2023-04-04T03:22:56;99403.66;;;5.47;81.50
50672;BME280;46021;55.882;37.654;2023-04-04T03:25:24;99399.34;;;5.46;82.01
50672;BME280;46021;55.882;37.654;2023-04-04T03:27:53;99390.03;;;5.37;81.57
50672;BME280;46021;55.882;37.654;2023-04-04T03:30:23;99402.81;;;5.46;81.97
50672;BME280;46021;55.882;37.654;2023-04-04T03:32:51;99407.09;;;5.47;81.83
50672;BME280;46021;55.882;37.654;2023-04-04T03:35:18;99411.44;;;5.45;81.86
50672;BME280;46021;55.882;37.654;2023-04-04T03:37:45;99417.31;;;5.54;81.31
50672;BME280;46021;55.882;37.654;2023-04-04T03:40:12;99411.31;;;5.52;82.07
50672;BME280;46021;55.882;37.654;2023-04-04T03:42:41;99418.19;;;5.54;82.00
50672;BME280;46021;55.882;37.654;2023-04-04T03:45:10;99414.75;;;5.54;81.84
50672;BME280;46021;55.882;37.654;2023-04-04T03:47:39;99421.63;;;5.55;81.40
50672;BME280;46021;55.882;37.654;2023-04-04T03:50:07;99413.84;;;5.58;81.97
50672;BME280;46021;55.882;37.654;2023-04-04T03:52:38;99415.53;;;5.59;81.49
50672;BME280;46021;55.882;37.654;2023-04-04T03:55:06;99413.00;;;5.56;81.56
50672;BME280;46021;55.882;37.654;2023-04-04T03:57:33;99415.50;;;5.62;81.91
50672;BME280;46021;55.882;37.654;2023-04-04T04:00:04;99421.50;;;5.64;81.92
50672;BME280;46021;55.882;37.654;2023-04-04T04:02:38;99424.00;;;5.67;81.53
50672;BME280;46021;55.882;37.654;2023-04-04T04:05:06;99419.69;;;5.69;81.23
50672;BME280;46021;55.882;37.654;2023-04-04T04:07:34;99418.75;;;5.73;81.30
50672;BME280;46021;55.882;37.654;2023-04-04T04:10:02;99416.97;;;5.77;81.17
50672;BME280;46021;55.882;37.654;2023-04-04T04:12:30;99419.47;;;5.81;81.50
50672;BME280;46021;55.882;37.654;2023-04-04T04:14:57;99412.53;;;5.83;81.03
50672;BME280;46021;55.882;37.654;2023-04-04T04:17:25;99422.84;;;5.86;81.45
50672;BME280;46021;55.882;37.654;2023-04-04T04:19:53;99417.59;;;5.90;81.40
50672;BME280;46021;55.882;37.654;2023-04-04T04:22:22;99417.59;;;5.90;81.16
50672;BME280;46021;55.882;37.654;2023-04-04T04:24:49;99421.84;;;5.95;81.23
50672;BME280;46021;55.882;37.654;2023-04-04T04:27:16;99414.97;;;5.96;80.85
50672;BME280;46021;55.882;37.654;2023-04-04T04:29:43;99420.97;;;5.98;81.19
50672;BME280;46021;55.882;37.654;2023-04-04T04:32:15;99412.31;;;5.99;81.12
50672;BME280;46021;55.882;37.654;2023-04-04T04:34:47;99419.22;;;5.98;81.06
50672;BME280;46021;55.882;37.654;2023-04-04T04:37:18;99420.84;;;6.04;81.06
50672;BME280;46021;55.882;37.654;2023-04-04T04:39:48;99417.28;;;6.11;81.36
50672;BME280;46021;55.882;37.654;2023-04-04T04:42:30;99423.19;;;6.18;80.92
50672;BME280;46021;55.882;37.654;2023-04-04T04:44:59;99415.38;;;6.21;80.87
50672;BME280;46021;55.882;37.654;2023-04-04T04:47:29;99420.44;;;6.25;80.98
50672;BME280;46021;55.882;37.654;2023-04-04T04:49:58;99420.34;;;6.33;81.01
50672;BME280;46021;55.882;37.654;2023-04-04T04:52:35;99416.69;;;6.42;80.81
50672;BME280;46021;55.882;37.654;2023-04-04T04:55:04;99416.56;;;6.48;80.76
50672;BME280;46021;55.882;37.654;2023-04-04T04:57:33;99419.94;;;6.53;80.86
50672;BME280;46021;55.882;37.654;2023-04-04T05:00:06;99408.88;;;6.47;80.55
50672;BME280;46021;55.882;37.654;2023-04-04T05:02:34;99416.47;;;6.54;80.23
50672;BME280;46021;55.882;37.654;2023-04-04T05:05:04;99414.72;;;6.56;80.23
50672;BME280;46021;55.882;37.654;2023-04-04T05:07:33;99412.16;;;6.53;79.93
50672;BME280;46021;55.882;37.654;2023-04-04T05:10:00;99418.28;;;6.49;79.70
50672;BME280;46021;55.882;37.654;2023-04-04T05:12:27;99401.91;;;6.49;79.77
50672;BME280;46021;55.882;37.654;2023-04-04T05:14:54;99406.16;;;6.51;79.83
50672;BME280;46021;55.882;37.654;2023-04-04T05:17:22;99397.44;;;6.55;79.84
50672;BME280;46021;55.882;37.654;2023-04-04T05:19:51;99399.88;;;6.63;79.86
50672;BME280;46021;55.882;37.654;2023-04-04T05:22:22;99400.63;;;6.70;79.51
50672;BME280;46021;55.882;37.654;2023-04-04T05:24:51;99390.13;;;6.76;79.78
50672;BME280;46021;55.882;37.654;2023-04-04T05:27:22;99381.25;;;6.86;79.37
50672;BME280;46021;55.882;37.654;2023-04-04T05:30:07;99381.81;;;7.02;79.75
50672;BME280;46021;55.882;37.654;2023-04-04T05:32:46;99383.72;;;7.31;80.47
50672;BME280;46021;55.882;37.654;2023-04-04T05:35:20;99386.41;;;7.64;79.04
50672;BME280;46021;55.882;37.654;2023-04-04T05:37:49;99390.75;;;7.98;78.90
50672;BME280;46021;55.882;37.654;2023-04-04T05:40:17;99384.97;;;8.19;77.90
50672;BME280;46021;55.882;37.654;2023-04-04T05:42:54;99378.75;;;8.25;76.23
50672;BME280;46021;55.882;37.654;2023-04-04T05:45:23;99389.78;;;8.33;75.49
50672;BME280;46021;55.882;37.654;2023-04-04T05:47:51;99386.69;;;8.20;75.41
50672;BME280;46021;55.882;37.654;2023-04-04T05:50:20;99389.63;;;8.07;74.71
50672;BME280;46021;55.882;37.654;2023-04-04T05:52:52;99395.88;;;7.99;75.09
50672;BME280;46021;55.882;37.654;2023-04-04T05:55:20;99392.03;;;7.81;75.01
50672;BME280;46021;55.882;37.654;2023-04-04T05:57:47;99402.16;;;7.91;74.85
50672;BME280;46021;55.882;37.654;2023-04-04T06:00:20;99398.22;;;7.76;75.31
50672;BME280;46021;55.882;37.654;2023-04-04T06:02:59;99392.47;;;7.63;75.34
50672;BME280;46021;55.882;37.654;2023-04-04T06:05:27;99387.41;;;7.58;74.52
50672;BME280;46021;55.882;37.654;2023-04-04T06:07:55;99392.19;;;7.75;75.34
50672;BME280;46021;55.882;37.654;2023-04-04T06:10:22;99387.56;;;7.87;74.83
50672;BME280;46021;55.882;37.654;2023-04-04T06:12:50;99393.13;;;8.06;74.94
50672;BME280;46021;55.882;37.654;2023-04-04T06:15:17;99392.91;;;8.15;74.35
50672;BME280;46021;55.882;37.654;2023-04-04T06:17:45;99396.81;;;8.30;74.20
50672;BME280;46021;55.882;37.654;2023-04-04T06:20:12;99394.97;;;8.33;73.85
50672;BME280;46021;55.882;37.654;2023-04-04T06:22:41;99398.56;;;8.29;73.60
50672;BME280;46021;55.882;37.654;2023-04-04T06:25:10;99394.47;;;8.53;74.67
50672;BME280;46021;55.882;37.654;2023-04-04T06:27:40;99391.03;;;8.83;74.57
50672;BME280;46021;55.882;37.654;2023-04-04T06:30:08;99380.56;;;9.14;73.71
50672;BME280;46021;55.882;37.654;2023-04-04T06:32:36;99394.16;;;9.50;72.76
50672;BME280;46021;55.882;37.654;2023-04-04T06:35:07;99393.59;;;9.67;71.51
50672;BME280;46021;55.882;37.654;2023-04-04T06:37:44;99393.25;;;9.78;70.39
50672;BME280;46021;55.882;37.654;2023-04-04T06:40:19;99388.91;;;9.79;69.94
50672;BME280;46021;55.882;37.654;2023-04-04T06:42:47;99400.22;;;9.78;70.08
50672;BME280;46021;55.882;37.654;2023-04-04T06:45:16;99399.97;;;9.85;70.08
50672;BME280;46021;55.882;37.654;2023-04-04T06:47:43;99395.84;;;10.05;70.08
50672;BME280;46021;55.882;37.654;2023-04-04T06:50:11;99392.66;;;10.22;68.12
50672;BME280;46021;55.882;37.654;2023-04-04T06:52:38;99381.47;;;10.43;69.77
50672;BME280;46021;55.882;37.654;2023-04-04T06:55:06;99384.91;;;10.69;68.71
50672;BME280;46021;55.882;37.654;2023-04-04T06:57:34;99384.88;;;10.92;67.71
50672;BME280;46021;55.882;37.654;2023-04-04T07:00:03;99388.59;;;11.09;68.14
50672;BME280;46021;55.882;37.654;2023-04-04T07:02:31;99379.16;;;11.06;67.30
50672;BME280;46021;55.882;37.654;2023-04-04T07:04:58;99385.63;;;11.18;67.51
50672;BME280;46021;55.882;37.654;2023-04-04T07:07:25;99393.00;;;11.30;66.95
50672;BME280;46021;55.882;37.654;2023-04-04T07:09:54;99392.44;;;11.44;66.29
50672;BME280;46021;55.882;37.654;2023-04-04T07:12:21;99395.47;;;11.56;65.81
50672;BME280;46021;55.882;37.654;2023-04-04T07:14:50;99384.72;;;11.63;65.73
50672;BME280;46021;55.882;37.654;2023-04-04T07:17:17;99389.34;;;11.77;65.51
50672;BME280;46021;55.882;37.654;2023-04-04T07:19:44;99390.69;;;11.87;65.32
50672;BME280;46021;55.882;37.654;2023-04-04T07:22:11;99389.41;;;11.76;63.93
50672;BME280;46021;55.882;37.654;2023-04-04T07:24:39;99402.78;;;11.90;64.54
50672;BME280;46021;55.882;37.654;2023-04-04T07:27:07;99403.31;;;11.98;64.30
50672;BME280;46021;55.882;37.654;2023-04-04T07:29:34;99397.47;;;12.14;64.34
50672;BME280;46021;55.882;37.654;2023-04-04T07:32:03;99396.13;;;12.44;64.26
50672;BME280;46021;55.882;37.654;2023-04-04T07:34:30;99394.97;;;12.71;63.18
50672;BME280;46021;55.882;37.654;2023-04-04T07:36:57;99396.56;;;12.73;61.48
50672;BME280;46021;55.882;37.654;2023-04-04T07:39:24;99400.91;;;12.74;61.27
50672;BME280;46021;55.882;37.654;2023-04-04T07:41:51;99399.69;;;12.81;62.12
50672;BME280;46021;55.882;37.654;2023-04-04T07:44:20;99405.84;;;12.80;61.29
50672;BME280;46021;55.882;37.654;2023-04-04T07:46:47;99394.63;;;12.78;60.68
50672;BME280;46021;55.882;37.654;2023-04-04T07:49:15;99402.22;;;12.83;60.60
50672;BME280;46021;55.882;37.654;2023-04-04T07:51:42;99395.16;;;12.85;60.59
50672;BME280;46021;55.882;37.654;2023-04-04T07:54:09;99393.19;;;12.90;60.47
50672;BME280;46021;55.882;37.654;2023-04-04T07:56:37;99380.06;;;12.92;60.63
50672;BME280;46021;55.882;37.654;2023-04-04T07:59:04;99391.72;;;13.03;60.15
50672;BME280;46021;55.882;37.654;2023-04-04T08:01:31;99381.88;;;13.09;60.09
50672;BME280;46021;55.882;37.654;2023-04-04T08:03:58;99382.31;;;12.99;59.12
50672;BME280;46021;55.882;37.654;2023-04-04T08:08:55;99395.94;;;13.06;59.88
50672;BME280;46021;55.882;37.654;2023-04-04T08:11:23;99397.66;;;13.07;59.30
50672;BME280;46021;55.882;37.654;2023-04-04T08:13:50;99382.78;;;13.07;59.37
50672;BME280;46021;55.882;37.654;2023-04-04T08:16:17;99399.41;;;13.25;58.99
50672;BME280;46021;55.882;37.654;2023-04-04T08:18:44;99402.41;;;13.37;58.74
50672;BME280;46021;55.882;37.654;2023-04-04T08:21:11;99404.06;;;13.38;58.71
50672;BME280;46021;55.882;37.654;2023-04-04T08:23:39;99402.22;;;13.40;58.65
50672;BME280;46021;55.882;37.654;2023-04-04T08:26:07;99412.25;;;13.49;58.61
50672;BME280;46021;55.882;37.654;2023-04-04T08:28:36;99404.09;;;13.55;58.46
50672;BME280;46021;55.882;37.654;2023-04-04T08:31:03;99407.75;;;13.70;57.75
50672;BME280;46021;55.882;37.654;2023-04-04T08:33:30;99402.13;;;13.78;57.18
50672;BME280;46021;55.882;37.654;2023-04-04T08:35:58;99394.59;;;14.07;57.30
50672;BME280;46021;55.882;37.654;2023-04-04T08:38:25;99397.78;;;14.47;57.13
50672;BME280;46021;55.882;37.654;2023-04-04T08:40:52;99393.66;;;14.92;56.79
50672;BME280;46021;55.882;37.654;2023-04-04T08:43:22;99385.81;;;15.24;54.87
50672;BME280;46021;55.882;37.654;2023-04-04T08:45:52;99391.84;;;15.56;54.41
50672;BME280;46021;55.882;37.654;2023-04-04T08:48:20;99373.88;;;15.94;54.40
50672;BME280;46021;55.882;37.654;2023-04-04T08:50:51;99384.28;;;16.41;53.43
50672;BME280;46021;55.882;37.654;2023-04-04T08:53:22;99382.13;;;16.90;52.36
50672;BME280;46021;55.882;37.654;2023-04-04T08:55:50;99382.16;;;18.12;52.91
50672;BME280;46021;55.882;37.654;2023-04-04T08:58:17;99384.25;;;19.93;50.82
50672;BME280;46021;55.882;37.654;2023-04-04T09:00:45;99392.34;;;21.50;46.40
50672;BME280;46021;55.882;37.654;2023-04-04T09:03:18;99375.97;;;23.21;42.85
50672;BME280;46021;55.882;37.654;2023-04-04T09:05:47;99370.09;;;25.00;44.16
50672;BME280;46021;55.882;37.654;2023-04-04T09:08:15;99375.84;;;26.39;41.89
50672;BME280;46021;55.882;37.654;2023-04-04T09:10:44;99368.03;;;26.72;36.23
50672;BME280;46021;55.882;37.654;2023-04-04T09:13:11;99390.06;;;27.16;35.59
50672;BME280;46021;55.882;37.654;2023-04-04T09:15:40;99369.25;;;27.45;35.04
50672;BME280;46021;55.882;37.654;2023-04-04T09:18:10;99385.19;;;28.12;34.41
50672;BME280;46021;55.882;37.654;2023-04-04T09:20:38;99383.06;;;28.80;33.09
50672;BME280;46021;55.882;37.654;2023-04-04T09:23:07;99387.06;;;28.84;30.95
50672;BME280;46021;55.882;37.654;2023-04-04T09:25:35;99391.47;;;28.68;31.17
50672;BME280;46021;55.882;37.654;2023-04-04T09:28:03;99384.22;;;28.13;31.16
50672;BME280;46021;55.882;37.654;2023-04-04T09:30:32;99387.84;;;26.95;31.46
50672;BME280;46021;55.882;37.654;2023-04-04T09:33:01;99390.28;;;25.84;32.38
50672;BME280;46021;55.882;37.654;2023-04-04T09:35:33;99391.13;;;25.03;32.16
50672;BME280;46021;55.882;37.654;2023-04-04T09:38:01;99392.28;;;23.96;32.65
50672;BME280;46021;55.882;37.654;2023-04-04T09:40:28;99392.50;;;23.34;33.60
50672;BME280;46021;55.882;37.654;2023-04-04T09:42:59;99400.69;;;22.19;33.70
50672;BME280;46021;55.882;37.654;2023-04-04T09:45:27;99395.78;;;21.18;35.12
50672;BME280;46021;55.882;37.654;2023-04-04T09:47:56;99406.59;;;20.47;36.50
50672;BME280;46021;55.882;37.654;2023-04-04T09:50:23;99402.03;;;19.43;36.75
50672;BME280;46021;55.882;37.654;2023-04-04T09:52:51;99406.50;;;18.80;37.91
50672;BME280;46021;55.882;37.654;2023-04-04T09:55:30;99401.81;;;18.34;38.79
50672;BME280;46021;55.882;37.654;2023-04-04T09:57:57;99408.09;;;17.92;39.34
50672;BME280;46021;55.882;37.654;2023-04-04T10:00:28;99400.34;;;17.35;39.82
50672;BME280;46021;55.882;37.654;2023-04-04T10:02:56;99404.59;;;16.96;39.86
50672;BME280;46021;55.882;37.654;2023-04-04T10:05:24;99407.41;;;16.93;40.64
50672;BME280;46021;55.882;37.654;2023-04-04T10:07:53;99408.66;;;16.87;40.91
50672;BME280;46021;55.882;37.654;2023-04-04T10:10:20;99409.31;;;16.91;40.85
50672;BME280;46021;55.882;37.654;2023-04-04T10:12:48;99411.91;;;16.76;41.07
50672;BME280;46021;55.882;37.654;2023-04-04T10:15:18;99392.53;;;16.63;40.45
50672;BME280;46021;55.882;37.654;2023-04-04T10:17:46;99411.34;;;16.57;40.37
50672;BME280;46021;55.882;37.654;2023-04-04T10:20:14;99407.78;;;16.44;40.95
50672;BME280;46021;55.882;37.654;2023-04-04T10:22:41;99408.66;;;16.14;40.75
50672;BME280;46021;55.882;37.654;2023-04-04T10:25:11;99408.59;;;15.85;40.54
50672;BME280;46021;55.882;37.654;2023-04-04T10:27:38;99408.38;;;15.74;41.27
50672;BME280;46021;55.882;37.654;2023-04-04T10:30:07;99414.06;;;15.50;41.26
50672;BME280;46021;55.882;37.654;2023-04-04T10:32:42;99407.63;;;15.40;41.85
50672;BME280;46021;55.882;37.654;2023-04-04T10:35:13;99418.31;;;15.37;42.13
50672;BME280;46021;55.882;37.654;2023-04-04T10:37:42;99409.44;;;15.24;42.04
50672;BME280;46021;55.882;37.654;2023-04-04T10:40:15;99416.88;;;15.31;42.47
50672;BME280;46021;55.882;37.654;2023-04-04T10:42:49;99412.03;;;15.39;42.48
50672;BME280;46021;55.882;37.654;2023-04-04T10:45:16;99420.56;;;15.59;42.71
50672;BME280;46021;55.882;37.654;2023-04-04T10:47:44;99413.84;;;15.85;42.80
50672;BME280;46021;55.882;37.654;2023-04-04T10:50:11;99412.03;;;16.16;42.31
50672;BME280;46021;55.882;37.654;2023-04-04T10:52:40;99420.47;;;16.51;42.97
50672;BME280;46021;55.882;37.654;2023-04-04T10:55:10;99418.69;;;16.81;41.21
50672;BME280;46021;55.882;37.654;2023-04-04T10:57:41;99423.00;;;17.10;41.10
50672;BME280;46021;55.882;37.654;2023-04-04T11:00:11;99424.94;;;17.36;40.98
50672;BME280;46021;55.882;37.654;2023-04-04T11:02:46;99423.53;;;17.57;39.61
50672;BME280;46021;55.882;37.654;2023-04-04T11:05:18;99429.28;;;17.64;40.25
50672;BME280;46021;55.882;37.654;2023-04-04T11:07:47;99421.28;;;17.24;39.40
50672;BME280;46021;55.882;37.654;2023-04-04T11:10:21;99420.94;;;17.01;39.41
50672;BME280;46021;55.882;37.654;2023-04-04T11:12:55;99414.13;;;16.84;40.35
50672;BME280;46021;55.882;37.654;2023-04-04T11:15:44;99413.44;;;16.81;39.97
50672;BME280;46021;55.882;37.654;2023-04-04T11:18:13;99411.34;;;16.57;40.06
50672;BME280;46021;55.882;37.654;2023-04-04T11:20:41;99410.94;;;16.20;40.22
50672;BME280;46021;55.882;37.654;2023-04-04T11:23:14;99415.34;;;16.05;41.00
50672;BME280;46021;55.882;37.654;2023-04-04T11:25:51;99419.00;;;16.17;41.42
50672;BME280;46021;55.882;37.654;2023-04-04T11:28:42;99415.13;;;16.53;39.45
50672;BME280;46021;55.882;37.654;2023-04-04T11:31:27;99410.78;;;16.95;40.51
50672;BME280;46021;55.882;37.654;2023-04-04T11:34:00;99405.78;;;17.05;40.77
50672;BME280;46021;55.882;37.654;2023-04-04T11:36:51;99408.47;;;17.32;40.45
50672;BME280;46021;55.882;37.654;2023-04-04T11:39:25;99405.00;;;17.59;40.42
50672;BME280;46021;55.882;37.654;2023-04-04T11:41:54;99405.75;;;17.61;39.68
50672;BME280;46021;55.882;37.654;2023-04-04T11:44:24;99409.16;;;17.21;40.12
50672;BME280;46021;55.882;37.654;2023-04-04T11:46:54;99412.78;;;16.77;40.46
50672;BME280;46021;55.882;37.654;2023-04-04T11:49:26;99415.75;;;16.42;40.69
50672;BME280;46021;55.882;37.654;2023-04-04T11:51:55;99407.75;;;16.15;41.39
50672;BME280;46021;55.882;37.654;2023-04-04T11:54:22;99415.88;;;15.80;41.76
50672;BME280;46021;55.882;37.654;2023-04-04T11:56:49;99412.34;;;15.65;41.88
50672;BME280;46021;55.882;37.654;2023-04-04T11:59:18;99416.50;;;15.53;41.85
50672;BME280;46021;55.882;37.654;2023-04-04T12:01:47;99421.59;;;15.40;42.52
50672;BME280;46021;55.882;37.654;2023-04-04T12:04:16;99417.44;;;15.36;42.75
50672;BME280;46021;55.882;37.654;2023-04-04T12:06:46;99415.75;;;15.19;42.61
50672;BME280;46021;55.882;37.654;2023-04-04T12:09:16;99425.25;;;15.06;42.87
50672;BME280;46021;55.882;37.654;2023-04-04T12:11:45;99416.41;;;14.91;43.46
50672;BME280;46021;55.882;37.654;2023-04-04T12:14:16;99420.81;;;14.91;43.65
50672;BME280;46021;55.882;37.654;2023-04-04T12:16:46;99424.69;;;14.84;43.46
50672;BME280;46021;55.882;37.654;2023-04-04T12:19:16;99421.66;;;14.75;43.82
50672;BME280;46021;55.882;37.654;2023-04-04T12:21:45;99425.72;;;14.65;43.92
50672;BME280;46021;55.882;37.654;2023-04-04T12:24:13;99429.59;;;14.40;44.86
50672;BME280;46021;55.882;37.654;2023-04-04T12:26:40;99425.03;;;14.27;44.90
50672;BME280;46021;55.882;37.654;2023-04-04T12:29:08;99427.81;;;14.06;45.84
50672;BME280;46021;55.882;37.654;2023-04-04T12:31:35;99437.13;;;13.94;46.42
50672;BME280;46021;55.882;37.654;2023-04-04T12:34:03;99437.13;;;13.77;46.82
50672;BME280;46021;55.882;37.654;2023-04-04T12:36:33;99444.47;;;13.51;48.29
50672;BME280;46021;55.882;37.654;2023-04-04T12:39:05;99442.75;;;13.33;48.82
50672;BME280;46021;55.882;37.654;2023-04-04T12:41:33;99455.28;;;13.24;48.95
50672;BME280;46021;55.882;37.654;2023-04-04T12:44:02;99446.94;;;13.16;49.49
50672;BME280;46021;55.882;37.654;2023-04-04T12:46:34;99451.69;;;13.08;50.44
50672;BME280;46021;55.882;37.654;2023-04-04T12:49:04;99445.22;;;12.96;50.58
50672;BME280;46021;55.882;37.654;2023-04-04T12:51:34;99451.47;;;12.94;50.35
50672;BME280;46021;55.882;37.654;2023-04-04T12:54:05;99454.38;;;12.87;50.62
50672;BME280;46021;55.882;37.654;2023-04-04T12:56:33;99439.56;;;12.86;50.73
50672;BME280;46021;55.882;37.654;2023-04-04T12:59:02;99454.13;;;12.92;51.24
50672;BME280;46021;55.882;37.654;2023-04-04T13:01:30;99455.34;;;12.85;51.41
50672;BME280;46021;55.882;37.654;2023-04-04T13:04:01;99460.31;;;12.91;50.94
50672;BME280;46021;55.882;37.654;2023-04-04T13:06:31;99458.19;;;12.99;51.21
50672;BME280;46021;55.882;37.654;2023-04-04T13:08:59;99464.31;;;12.98;51.97